createdAt,value
2019-06-26T00:00:10.800Z,95.80
2019-06-26T00:02:39.679Z,95.90
2019-06-26T00:05:08.625Z,96.00
2019-06-26T00:07:37.508Z,96.10
2019-06-26T00:10:07.095Z,96.20
2019-06-26T00:12:35.943Z,96.30
2019-06-26T00:15:07.238Z,96.40
2019-06-26T00:17:36.350Z,96.50
2019-06-26T00:20:06.764Z,96.60
2019-06-26T00:22:35.652Z,96.60
2019-06-26T00:25:07.737Z,96.80
2019-06-26T00:27:36.578Z,96.90
2019-06-26T00:30:08.982Z,96.90
2019-06-26T00:32:37.867Z,97.00
2019-06-26T00:35:06.815Z,97.10
2019-06-26T00:37:35.707Z,97.20
2019-06-26T00:40:06.097Z,97.20
2019-06-26T00:42:34.943Z,97.30
2019-06-26T00:45:05.030Z,97.40
2019-06-26T00:47:33.945Z,97.50
2019-06-26T00:50:02.801Z,97.50
2019-06-26T00:52:31.683Z,97.60
2019-06-26T00:55:00.581Z,97.60
2019-06-26T00:57:29.444Z,97.70
2019-06-26T00:59:58.411Z,97.80
2019-06-26T01:02:27.259Z,97.80
2019-06-26T01:05:00.727Z,97.90
2019-06-26T01:07:29.588Z,98.30
2019-06-26T01:09:58.470Z,98.00
2019-06-26T01:12:27.311Z,98.00
2019-06-26T01:14:56.207Z,98.10
2019-06-26T01:17:25.656Z,98.30
2019-06-26T01:19:54.535Z,98.30
2019-06-26T01:22:23.383Z,98.40
2019-06-26T01:24:52.270Z,98.40
2019-06-26T01:27:21.154Z,98.50
2019-06-26T01:29:49.994Z,98.60
2019-06-26T01:32:18.917Z,98.70
2019-06-26T01:34:47.811Z,98.80
2019-06-26T01:37:16.659Z,98.90
2019-06-26T01:39:45.546Z,99.00
2019-06-26T01:42:14.443Z,99.00
2019-06-26T01:44:43.288Z,99.00
2019-06-26T01:47:12.167Z,99.00
2019-06-26T01:49:41.056Z,99.00
2019-06-26T01:52:09.904Z,99.20
2019-06-26T01:54:38.798Z,99.30
2019-06-26T01:57:07.684Z,99.30
2019-06-26T01:59:36.538Z,99.40
2019-06-26T02:02:05.439Z,99.80
2019-06-26T02:04:34.323Z,99.50
2019-06-26T02:07:03.168Z,99.60
2019-06-26T02:09:32.059Z,99.60
2019-06-26T02:12:00.947Z,99.70
2019-06-26T02:14:31.581Z,99.70
2019-06-26T02:17:00.331Z,99.70
2019-06-26T02:19:29.219Z,99.80
2019-06-26T02:21:58.073Z,99.80
2019-06-26T02:24:26.959Z,99.80
2019-06-26T02:26:55.848Z,99.90
2019-06-26T02:29:24.711Z,99.90
2019-06-26T02:31:53.608Z,99.90
2019-06-26T02:34:22.496Z,99.90
2019-06-26T02:36:51.343Z,99.90
2019-06-26T02:39:20.233Z,99.90
2019-06-26T02:41:49.127Z,99.90
2019-06-26T02:44:17.968Z,99.90
2019-06-26T02:46:46.859Z,99.90
2019-06-26T02:49:15.748Z,99.90
2019-06-26T02:51:44.600Z,99.90
2019-06-26T02:54:13.490Z,99.90
2019-06-26T02:56:42.395Z,99.90
2019-06-26T02:59:11.231Z,99.90
2019-06-26T03:01:40.106Z,99.90
2019-06-26T03:04:09.004Z,99.90
2019-06-26T03:06:37.859Z,99.90
2019-06-26T03:09:07.558Z,99.90
2019-06-26T03:11:36.436Z,99.90
2019-06-26T03:14:05.298Z,99.90
2019-06-26T03:16:34.179Z,99.90
2019-06-26T03:19:03.080Z,99.90
2019-06-26T03:21:31.924Z,99.90
2019-06-26T03:24:00.819Z,99.90
2019-06-26T03:26:29.711Z,99.90
2019-06-26T03:28:58.554Z,99.90
2019-06-26T03:31:27.453Z,99.90
2019-06-26T03:33:56.340Z,99.90
2019-06-26T03:36:25.187Z,99.90
2019-06-26T03:38:54.083Z,99.90
2019-06-26T03:41:22.930Z,99.90
2019-06-26T03:43:51.815Z,99.90
2019-06-26T03:46:20.659Z,99.90
2019-06-26T03:48:49.556Z,99.90
2019-06-26T03:51:18.539Z,99.90
2019-06-26T03:53:47.500Z,99.90
2019-06-26T03:56:16.348Z,99.90
2019-06-26T03:58:45.236Z,99.90
2019-06-26T04:01:14.156Z,99.90
2019-06-26T04:03:43.043Z,99.90
2019-06-26T04:06:11.922Z,99.90
2019-06-26T04:08:40.811Z,99.90
2019-06-26T04:11:09.661Z,99.90
2019-06-26T04:13:38.558Z,99.90
2019-06-26T04:16:07.399Z,99.90
2019-06-26T04:18:36.288Z,99.90
2019-06-26T04:21:05.138Z,99.90
2019-06-26T04:23:34.031Z,99.90
2019-06-26T04:26:02.883Z,99.90
2019-06-26T04:28:31.771Z,99.90
2019-06-26T04:31:00.616Z,99.90
2019-06-26T04:33:29.518Z,99.90
2019-06-26T04:35:58.363Z,99.90
2019-06-26T04:38:27.264Z,99.90
2019-06-26T04:40:56.111Z,99.90
2019-06-26T04:43:24.998Z,99.90
2019-06-26T04:45:58.200Z,99.90
2019-06-26T04:48:24.388Z,99.90
2019-06-26T04:50:53.241Z,99.90
2019-06-26T04:53:22.766Z,99.90
2019-06-26T04:55:51.622Z,99.90
2019-06-26T04:58:20.516Z,99.90
2019-06-26T05:00:49.373Z,99.90
2019-06-26T05:03:18.324Z,99.90
2019-06-26T05:05:47.216Z,99.90
2019-06-26T05:08:16.115Z,99.90
2019-06-26T05:10:45.090Z,99.90
2019-06-26T05:13:13.972Z,99.90
2019-06-26T05:15:42.827Z,99.90
2019-06-26T05:18:11.724Z,99.90
2019-06-26T05:20:40.587Z,99.90
2019-06-26T05:23:09.467Z,99.90
2019-06-26T05:25:38.322Z,99.90
2019-06-26T05:28:08.417Z,99.90
2019-06-26T05:30:37.571Z,99.90
2019-06-26T05:33:06.464Z,99.90
2019-06-26T05:35:35.512Z,99.90
2019-06-26T05:38:04.506Z,99.90
2019-06-26T05:40:33.355Z,99.90
2019-06-26T05:43:02.275Z,99.90
2019-06-26T05:45:31.166Z,99.90
2019-06-26T05:48:00.006Z,99.90
2019-06-26T05:50:28.903Z,99.90
2019-06-26T05:52:57.795Z,99.90
2019-06-26T05:55:26.674Z,99.90
2019-06-26T05:57:55.546Z,99.90
2019-06-26T06:00:24.595Z,99.90
2019-06-26T06:02:54.107Z,99.90
2019-06-26T06:05:23.239Z,99.90
2019-06-26T06:07:52.139Z,99.90
2019-06-26T06:10:21.088Z,99.90
2019-06-26T06:12:49.982Z,99.90
2019-06-26T06:15:19.075Z,99.90
2019-06-26T06:17:47.930Z,99.90
2019-06-26T06:20:19.771Z,99.90
2019-06-26T06:22:48.609Z,99.80
2019-06-26T06:25:17.492Z,99.70
2019-06-26T06:27:46.346Z,99.50
2019-06-26T06:30:15.672Z,99.30
2019-06-26T06:32:44.487Z,99.30
2019-06-26T06:35:13.559Z,99.10
2019-06-26T06:37:42.419Z,99.00
2019-06-26T06:40:11.724Z,98.80
2019-06-26T06:42:40.567Z,98.70
2019-06-26T06:45:09.757Z,98.60
2019-06-26T06:47:38.599Z,98.50
2019-06-26T06:50:08.203Z,98.70
2019-06-26T06:52:37.151Z,98.20
2019-06-26T06:55:09.010Z,98.10
2019-06-26T06:57:37.910Z,97.90
2019-06-26T07:00:07.868Z,97.80
2019-06-26T07:02:36.699Z,97.70
2019-06-26T07:05:06.806Z,97.50
2019-06-26T07:07:35.794Z,97.40
2019-06-26T07:10:06.326Z,97.20
2019-06-26T07:12:35.319Z,97.10
2019-06-26T07:15:08.469Z,97.00
2019-06-26T07:17:37.358Z,96.80
2019-06-26T07:20:06.809Z,96.80
2019-06-26T07:22:35.695Z,96.60
2019-06-26T07:25:04.946Z,96.50
2019-06-26T07:27:33.842Z,96.40
2019-06-26T07:30:02.685Z,96.30
2019-06-26T07:32:31.575Z,95.90
2019-06-26T07:35:00.422Z,95.50
2019-06-26T07:37:29.311Z,95.10
2019-06-26T07:40:01.778Z,94.90
2019-06-26T07:42:28.722Z,94.70
2019-06-26T07:44:57.600Z,94.00
2019-06-26T07:47:41.840Z,93.50
2019-06-26T07:49:56.980Z,93.20
2019-06-26T07:52:25.833Z,92.80
2019-06-26T07:54:55.315Z,92.50
2019-06-26T07:57:24.219Z,92.20
2019-06-26T07:59:53.075Z,91.90
2019-06-26T08:02:21.961Z,91.60
2019-06-26T08:04:50.811Z,91.50
2019-06-26T08:07:19.726Z,91.10
2019-06-26T08:09:48.567Z,90.80
2019-06-26T08:12:17.462Z,90.50
2019-06-26T08:14:46.307Z,90.20
2019-06-26T08:17:15.199Z,89.90
2019-06-26T08:19:44.043Z,89.30
2019-06-26T08:22:12.926Z,88.60
2019-06-26T08:24:41.774Z,88.00
2019-06-26T08:27:12.981Z,87.20
2019-06-26T08:29:41.215Z,86.50
2019-06-26T08:32:10.055Z,86.20
2019-06-26T08:34:39.054Z,85.90
2019-06-26T08:37:08.096Z,85.20
2019-06-26T08:39:36.984Z,85.20
2019-06-26T08:42:05.852Z,83.70
2019-06-26T08:44:34.735Z,82.90
2019-06-26T08:47:03.601Z,82.30
2019-06-26T08:49:32.562Z,81.20
2019-06-26T08:52:01.911Z,80.10
2019-06-26T08:54:31.724Z,79.40
2019-06-26T08:57:00.586Z,79.00
2019-06-26T08:59:29.490Z,78.50
2019-06-26T09:01:58.357Z,77.80
2019-06-26T09:04:27.273Z,77.00
2019-06-26T09:06:56.130Z,76.10
2019-06-26T09:09:25.058Z,75.70
2019-06-26T09:11:53.936Z,75.40
2019-06-26T09:14:22.864Z,75.30
2019-06-26T09:16:51.728Z,74.60
2019-06-26T09:19:20.628Z,74.20
2019-06-26T09:21:49.905Z,73.50
2019-06-26T09:24:19.872Z,73.20
2019-06-26T09:26:48.737Z,72.70
2019-06-26T09:29:17.639Z,71.70
2019-06-26T09:31:46.546Z,70.40
2019-06-26T09:34:15.416Z,69.40
2019-06-26T09:36:44.324Z,69.10
2019-06-26T09:39:13.187Z,68.60
2019-06-26T09:41:42.084Z,68.00
2019-06-26T09:44:10.947Z,67.60
2019-06-26T09:46:39.825Z,67.70
2019-06-26T09:49:08.724Z,67.50
2019-06-26T09:51:37.591Z,67.20
2019-06-26T09:54:06.501Z,67.40
2019-06-26T09:56:35.373Z,67.30
2019-06-26T09:59:04.278Z,67.00
2019-06-26T10:01:33.562Z,66.60
2019-06-26T10:04:03.259Z,66.30
2019-06-26T10:06:32.095Z,66.00
2019-06-26T10:09:00.979Z,65.40
2019-06-26T10:11:29.836Z,65.20
2019-06-26T10:13:58.928Z,64.80
2019-06-26T10:16:27.774Z,64.30
2019-06-26T10:19:09.445Z,63.80
2019-06-26T10:21:27.154Z,63.40
2019-06-26T10:23:56.062Z,63.00
2019-06-26T10:26:24.907Z,61.80
2019-06-26T10:28:53.798Z,60.70
2019-06-26T10:31:22.650Z,59.80
2019-06-26T10:33:51.535Z,59.40
2019-06-26T10:36:24.194Z,58.90
2019-06-26T10:38:51.280Z,58.60
2019-06-26T10:41:20.132Z,58.10
2019-06-26T10:43:49.022Z,57.80
2019-06-26T10:46:17.871Z,57.70
2019-06-26T10:48:46.760Z,57.30
2019-06-26T10:51:15.847Z,57.10
2019-06-26T10:53:45.380Z,57.00
2019-06-26T10:56:14.224Z,56.50
2019-06-26T10:58:43.136Z,55.90
2019-06-26T11:01:12.272Z,55.90
2019-06-26T11:03:41.498Z,55.30
2019-06-26T11:06:10.512Z,55.00
2019-06-26T11:08:39.363Z,54.60
2019-06-26T11:11:08.383Z,54.60
2019-06-26T11:13:37.331Z,54.60
2019-06-26T11:16:06.188Z,54.40
2019-06-26T11:18:35.068Z,54.20
2019-06-26T11:21:03.914Z,54.00
2019-06-26T11:23:32.809Z,53.70
2019-06-26T11:26:01.659Z,53.70
2019-06-26T11:28:30.601Z,53.60
2019-06-26T11:30:59.536Z,53.60
2019-06-26T11:33:28.554Z,53.70
2019-06-26T11:35:57.442Z,53.40
2019-06-26T11:38:26.288Z,53.00
2019-06-26T11:40:55.327Z,52.70
2019-06-26T11:43:24.229Z,52.60
2019-06-26T11:45:55.774Z,52.50
2019-06-26T11:48:25.421Z,52.20
2019-06-26T11:50:55.037Z,51.50
2019-06-26T11:53:24.228Z,51.30
2019-06-26T11:55:53.973Z,51.20
2019-06-26T11:58:23.333Z,51.10
2019-06-26T12:00:54.033Z,50.90
2019-06-26T12:03:23.111Z,50.70
2019-06-26T12:05:52.051Z,50.80
2019-06-26T12:08:21.127Z,50.70
2019-06-26T12:10:50.260Z,50.40
2019-06-26T12:13:19.547Z,50.00
2019-06-26T12:15:48.567Z,49.60
2019-06-26T12:18:17.423Z,49.10
2019-06-26T12:20:53.835Z,48.50
2019-06-26T12:23:22.919Z,48.90
2019-06-26T12:25:51.787Z,48.00
2019-06-26T12:28:20.677Z,48.00
2019-06-26T12:30:49.536Z,48.10
2019-06-26T12:33:18.416Z,47.90
2019-06-26T12:35:47.259Z,47.80
2019-06-26T12:38:16.251Z,47.00
2019-06-26T12:40:45.108Z,47.30
2019-06-26T12:43:14.012Z,47.10
2019-06-26T12:45:42.837Z,46.90
2019-06-26T12:48:11.733Z,46.40
2019-06-26T12:50:40.575Z,46.00
2019-06-26T12:53:09.467Z,45.60
2019-06-26T12:55:38.316Z,45.20
2019-06-26T12:58:13.785Z,44.30
2019-06-26T13:00:37.808Z,43.70
2019-06-26T13:03:06.688Z,43.40
2019-06-26T13:05:35.538Z,43.40
2019-06-26T13:08:04.426Z,43.20
2019-06-26T13:10:48.445Z,42.90
2019-06-26T13:13:03.807Z,42.40
2019-06-26T13:15:32.680Z,42.20
2019-06-26T13:18:01.666Z,42.20
2019-06-26T13:20:30.522Z,42.10
2019-06-26T13:22:59.387Z,41.90
2019-06-26T13:25:28.240Z,41.70
2019-06-26T13:27:57.176Z,41.60
2019-06-26T13:30:31.720Z,41.70
2019-06-26T13:33:00.658Z,42.40
2019-06-26T13:35:29.455Z,41.50
2019-06-26T13:37:58.345Z,41.40
2019-06-26T13:40:27.199Z,41.30
2019-06-26T13:42:56.100Z,41.40
2019-06-26T13:45:25.043Z,41.60
2019-06-26T13:47:53.934Z,41.60
2019-06-26T13:50:22.799Z,41.40
2019-06-26T13:52:51.668Z,41.20
2019-06-26T13:55:20.528Z,40.90
2019-06-26T13:57:49.422Z,40.80
2019-06-26T14:00:19.014Z,40.60
2019-06-26T14:02:47.858Z,40.60
2019-06-26T14:05:16.747Z,40.60
2019-06-26T14:07:45.601Z,40.40
2019-06-26T14:10:14.790Z,40.40
2019-06-26T14:12:44.215Z,40.40
2019-06-26T14:15:13.519Z,39.90
2019-06-26T14:17:42.367Z,39.20
2019-06-26T14:20:13.248Z,39.40
2019-06-26T14:22:42.084Z,39.50
2019-06-26T14:25:13.159Z,39.80
2019-06-26T14:27:42.021Z,40.00
2019-06-26T14:30:11.305Z,40.20
2019-06-26T14:32:40.152Z,40.40
2019-06-26T14:35:09.338Z,40.50
2019-06-26T14:37:38.191Z,40.70
2019-06-26T14:40:08.185Z,41.00
2019-06-26T14:42:37.055Z,40.90
2019-06-26T14:45:10.579Z,41.10
2019-06-26T14:47:39.431Z,41.20
2019-06-26T14:50:08.584Z,41.50
2019-06-26T14:52:37.463Z,41.40
2019-06-26T14:55:08.226Z,41.40
2019-06-26T14:57:37.075Z,41.70
2019-06-26T15:00:08.039Z,41.50
2019-06-26T15:02:36.914Z,41.00
2019-06-26T15:05:07.511Z,40.90
2019-06-26T15:07:36.374Z,41.00
2019-06-26T15:10:09.416Z,41.00
2019-06-26T15:12:38.256Z,41.00
2019-06-26T15:15:08.172Z,41.00
2019-06-26T15:17:37.018Z,41.10
2019-06-26T15:20:07.515Z,41.10
2019-06-26T15:22:36.441Z,41.20
2019-06-26T15:25:09.416Z,41.20
2019-06-26T15:27:38.308Z,41.40
2019-06-26T15:30:08.371Z,41.40
2019-06-26T15:32:37.255Z,41.70
2019-06-26T15:35:07.806Z,41.70
2019-06-26T15:37:36.706Z,41.90
2019-06-26T15:40:06.456Z,41.90
2019-06-26T15:42:35.349Z,42.00
2019-06-26T15:45:04.992Z,41.80
2019-06-26T15:47:33.882Z,41.50
2019-06-26T15:50:03.231Z,41.40
2019-06-26T15:52:32.120Z,41.60
2019-06-26T15:55:00.963Z,41.80
2019-06-26T15:57:29.856Z,42.00
2019-06-26T15:59:58.762Z,42.30
2019-06-26T16:02:27.698Z,42.40
2019-06-26T16:04:56.591Z,42.80
2019-06-26T16:07:25.439Z,43.10
2019-06-26T16:09:54.322Z,43.10
2019-06-26T16:12:23.170Z,43.30
2019-06-26T16:14:52.060Z,43.40
2019-06-26T16:17:22.471Z,44.00
2019-06-26T16:19:51.359Z,44.40
2019-06-26T16:22:31.843Z,44.80
2019-06-26T16:24:51.542Z,45.20
2019-06-26T16:27:20.401Z,45.50
2019-06-26T16:29:49.287Z,45.50
2019-06-26T16:32:18.134Z,45.90
2019-06-26T16:34:47.023Z,46.20
2019-06-26T16:37:15.870Z,46.50
2019-06-26T16:39:44.764Z,46.30
2019-06-26T16:42:13.620Z,46.50
2019-06-26T16:44:42.504Z,46.60
2019-06-26T16:47:11.355Z,46.90
2019-06-26T16:49:40.255Z,47.50
2019-06-26T16:52:09.098Z,48.00
2019-06-26T16:54:38.809Z,48.30
2019-06-26T16:57:07.652Z,49.00
2019-06-26T16:59:36.536Z,49.30
2019-06-26T17:02:07.136Z,49.40
2019-06-26T17:04:36.073Z,49.70
2019-06-26T17:07:05.060Z,49.60
2019-06-26T17:09:33.914Z,49.80
2019-06-26T17:12:02.796Z,50.00
2019-06-26T17:14:31.651Z,50.00
2019-06-26T17:17:00.532Z,50.10
2019-06-26T17:19:29.385Z,50.40
2019-06-26T17:21:58.298Z,50.50
2019-06-26T17:24:27.119Z,50.60
2019-06-26T17:26:59.305Z,50.90
2019-06-26T17:29:26.518Z,51.50
2019-06-26T17:31:55.391Z,51.30
2019-06-26T17:34:27.247Z,51.60
2019-06-26T17:36:54.779Z,51.80
2019-06-26T17:39:23.839Z,52.00
2019-06-26T17:41:52.847Z,52.30
2019-06-26T17:44:21.739Z,52.60
2019-06-26T17:46:50.579Z,52.90
2019-06-26T17:49:19.472Z,53.40
2019-06-26T17:51:48.325Z,53.80
2019-06-26T17:54:17.202Z,54.20
2019-06-26T17:56:46.993Z,54.60
2019-06-26T17:59:16.752Z,55.00
2019-06-26T18:01:45.747Z,55.20
2019-06-26T18:04:14.590Z,55.70
2019-06-26T18:06:43.466Z,56.10
2019-06-26T18:09:12.499Z,56.30
2019-06-26T18:11:41.398Z,56.50
2019-06-26T18:14:10.248Z,56.80
2019-06-26T18:16:39.141Z,56.90
2019-06-26T18:19:07.988Z,57.30
2019-06-26T18:21:36.875Z,57.50
2019-06-26T18:24:06.155Z,57.80
2019-06-26T18:26:35.149Z,58.10
2019-06-26T18:29:04.188Z,58.30
2019-06-26T18:31:33.075Z,58.50
2019-06-26T18:34:01.917Z,58.90
2019-06-26T18:36:33.464Z,59.50
2019-06-26T18:39:01.302Z,58.80
2019-06-26T18:41:30.191Z,58.80
2019-06-26T18:43:59.039Z,59.00
2019-06-26T18:46:28.048Z,59.20
2019-06-26T18:48:56.901Z,59.50
2019-06-26T18:51:25.743Z,59.80
2019-06-26T18:53:54.635Z,60.00
2019-06-26T18:56:23.487Z,60.20
2019-06-26T18:58:52.446Z,60.70
2019-06-26T19:01:21.974Z,60.90
2019-06-26T19:03:50.851Z,61.10
2019-06-26T19:06:19.756Z,61.40
2019-06-26T19:08:48.590Z,61.90
2019-06-26T19:11:17.483Z,62.10
2019-06-26T19:13:46.378Z,62.40
2019-06-26T19:16:15.223Z,63.30
2019-06-26T19:18:44.155Z,63.50
2019-06-26T19:21:13.011Z,62.90
2019-06-26T19:23:41.859Z,63.40
2019-06-26T19:26:10.767Z,63.70
2019-06-26T19:28:39.655Z,64.00
2019-06-26T19:31:08.594Z,64.60
2019-06-26T19:33:37.498Z,65.00
2019-06-26T19:36:06.991Z,65.40
2019-06-26T19:38:35.839Z,66.00
2019-06-26T19:41:08.379Z,66.60
2019-06-26T19:43:35.429Z,66.90
2019-06-26T19:46:05.114Z,67.60
2019-06-26T19:48:33.963Z,68.50
2019-06-26T19:51:02.855Z,68.70
2019-06-26T19:53:31.703Z,69.20
2019-06-26T19:56:00.599Z,69.50
2019-06-26T19:58:29.448Z,70.20
2019-06-26T20:00:58.339Z,70.60
2019-06-26T20:03:27.377Z,70.80
2019-06-26T20:05:56.483Z,71.20
2019-06-26T20:08:25.375Z,71.60
2019-06-26T20:10:54.243Z,72.00
2019-06-26T20:13:23.091Z,72.30
2019-06-26T20:15:51.971Z,72.70
2019-06-26T20:18:20.824Z,73.00
2019-06-26T20:20:49.728Z,73.30
2019-06-26T20:23:18.566Z,73.70
2019-06-26T20:25:47.556Z,73.70
2019-06-26T20:28:16.638Z,73.70
2019-06-26T20:30:45.488Z,74.60
2019-06-26T20:33:14.380Z,75.00
2019-06-26T20:35:43.227Z,76.20
2019-06-26T20:38:12.115Z,75.70
2019-06-26T20:40:40.963Z,76.00
2019-06-26T20:43:09.851Z,76.20
2019-06-26T20:45:38.701Z,76.70
2019-06-26T20:48:07.596Z,76.90
2019-06-26T20:50:37.355Z,77.10
2019-06-26T20:53:06.243Z,77.50
2019-06-26T20:55:35.095Z,77.80
2019-06-26T20:58:04.045Z,77.90
2019-06-26T21:00:32.935Z,78.10
2019-06-26T21:03:01.876Z,78.10
2019-06-26T21:05:30.790Z,78.30
2019-06-26T21:07:59.670Z,78.60
2019-06-26T21:10:28.514Z,78.80
2019-06-26T21:12:57.416Z,79.00
2019-06-26T21:15:26.246Z,80.10
2019-06-26T21:17:55.146Z,79.70
2019-06-26T21:20:23.996Z,81.00
2019-06-26T21:22:52.891Z,80.50
2019-06-26T21:25:21.734Z,80.70
2019-06-26T21:27:51.511Z,81.20
2019-06-26T21:30:20.395Z,81.60
2019-06-26T21:32:49.243Z,81.90
2019-06-26T21:35:18.336Z,82.20
2019-06-26T21:37:47.272Z,82.40
2019-06-26T21:40:16.162Z,82.60
2019-06-26T21:42:45.027Z,82.80
2019-06-26T21:45:14.105Z,83.00
2019-06-26T21:47:42.938Z,83.20
2019-06-26T21:50:11.839Z,83.50
2019-06-26T21:52:40.681Z,83.70
2019-06-26T21:55:10.482Z,83.90
2019-06-26T21:57:39.429Z,84.00
2019-06-26T22:00:09.319Z,84.30
2019-06-26T22:02:38.244Z,84.60
2019-06-26T22:05:08.162Z,84.70
2019-06-26T22:07:37.182Z,85.10
2019-06-26T22:10:07.871Z,85.40
2019-06-26T22:12:36.763Z,85.60
2019-06-26T22:15:06.855Z,85.90
2019-06-26T22:17:35.703Z,86.30
2019-06-26T22:20:12.155Z,86.60
2019-06-26T22:22:38.601Z,86.90
2019-06-26T22:25:09.350Z,87.30
2019-06-26T22:27:38.195Z,87.60
2019-06-26T22:30:08.203Z,88.00
2019-06-26T22:32:37.059Z,88.10
2019-06-26T22:35:06.847Z,88.40
2019-06-26T22:37:35.690Z,88.80
2019-06-26T22:40:05.774Z,88.90
2019-06-26T22:42:34.622Z,89.20
2019-06-26T22:45:03.602Z,89.70
2019-06-26T22:47:32.494Z,90.00
2019-06-26T22:50:01.354Z,90.00
2019-06-26T22:52:30.244Z,90.20
2019-06-26T22:54:59.102Z,90.30
2019-06-26T22:57:29.319Z,90.40
2019-06-26T22:59:58.200Z,90.50
2019-06-26T23:02:27.070Z,90.70
2019-06-26T23:04:55.925Z,90.80
2019-06-26T23:07:24.818Z,90.90
2019-06-26T23:09:53.660Z,91.10
2019-06-26T23:12:22.554Z,91.20
2019-06-26T23:14:51.410Z,91.30
2019-06-26T23:17:20.307Z,91.40
2019-06-26T23:19:49.206Z,91.50
2019-06-26T23:22:18.072Z,91.70
2019-06-26T23:24:47.557Z,91.60
2019-06-26T23:27:16.405Z,91.70
2019-06-26T23:29:45.299Z,91.90
2019-06-26T23:32:14.148Z,92.00
2019-06-26T23:34:43.041Z,92.10
2019-06-26T23:37:11.908Z,92.20
2019-06-26T23:39:40.807Z,92.20
2019-06-26T23:42:09.650Z,92.30
2019-06-26T23:44:38.560Z,92.40
2019-06-26T23:47:07.404Z,92.50
2019-06-26T23:49:36.303Z,92.50
2019-06-26T23:52:05.156Z,92.70
2019-06-26T23:54:35.220Z,92.80
2019-06-26T23:57:04.072Z,92.90
2019-06-26T23:59:32.968Z,92.90
